createdAt,value
2023-02-28T00:01:44.310Z,68.86
2023-02-28T00:04:12.260Z,70.06
2023-02-28T00:06:40.199Z,72.00
2023-02-28T00:09:08.162Z,73.16
2023-02-28T00:11:36.184Z,73.10
2023-02-28T00:14:04.207Z,72.49
2023-02-28T00:16:32.101Z,72.69
2023-02-28T00:19:00.100Z,74.45
2023-02-28T00:21:28.340Z,75.65
2023-02-28T00:23:56.391Z,74.60
2023-02-28T00:26:24.518Z,73.41
2023-02-28T00:28:53.989Z,74.88
2023-02-28T00:31:22.069Z,75.35
2023-02-28T00:33:51.876Z,74.94
2023-02-28T00:36:19.950Z,71.90
2023-02-28T00:38:47.918Z,69.99
2023-02-28T00:41:16.179Z,72.42
2023-02-28T00:43:44.120Z,72.93
2023-02-28T00:46:12.053Z,71.36
2023-02-28T00:48:40.100Z,73.39
2023-02-28T00:51:08.065Z,72.18
2023-02-28T00:53:36.102Z,72.67
2023-02-28T00:56:04.719Z,72.13
2023-02-28T00:58:32.724Z,71.41
2023-02-28T01:01:00.781Z,69.93
2023-02-28T01:03:28.773Z,68.45
2023-02-28T01:05:56.814Z,69.52
2023-02-28T01:08:26.981Z,69.05
2023-02-28T01:10:55.524Z,66.06
2023-02-28T01:13:24.283Z,64.93
2023-02-28T01:15:57.078Z,67.09
2023-02-28T01:18:25.581Z,68.40
2023-02-28T01:20:53.695Z,68.89
2023-02-28T01:23:24.469Z,67.88
2023-02-28T01:25:53.983Z,65.31
2023-02-28T01:28:22.559Z,65.39
2023-02-28T01:30:52.693Z,65.79
2023-02-28T01:33:20.899Z,66.11
2023-02-28T01:35:49.357Z,68.68
2023-02-28T01:38:22.619Z,68.65
2023-02-28T01:40:51.851Z,68.97
2023-02-28T01:44:27.385Z,67.05
2023-02-28T01:46:55.255Z,66.03
2023-02-28T01:49:23.210Z,65.42
2023-02-28T01:51:55.912Z,65.08
2023-02-28T01:54:30.555Z,67.04
2023-02-28T01:57:09.966Z,69.10
2023-02-28T01:59:59.459Z,68.99
2023-02-28T02:02:29.835Z,70.03
2023-02-28T02:05:21.566Z,70.21
2023-02-28T02:07:57.911Z,68.37
2023-02-28T02:10:54.895Z,68.77
2023-02-28T02:13:53.760Z,69.71
2023-02-28T02:16:27.186Z,71.17
2023-02-28T02:19:30.793Z,71.17
2023-02-28T02:22:46.266Z,72.50
2023-02-28T02:25:40.447Z,71.68
2023-02-28T02:29:04.297Z,73.94
2023-02-28T02:32:18.446Z,75.08
2023-02-28T02:35:32.615Z,75.56
2023-02-28T02:38:35.380Z,74.32
2023-02-28T02:41:47.338Z,73.80
2023-02-28T02:44:29.731Z,72.89
2023-02-28T02:47:12.433Z,71.13
2023-02-28T02:49:48.395Z,73.66
2023-02-28T02:52:22.890Z,75.56
2023-02-28T02:54:56.684Z,75.47
2023-02-28T02:57:40.195Z,75.11
2023-02-28T03:00:09.986Z,74.72
2023-02-28T03:02:40.240Z,73.97
2023-02-28T03:05:49.981Z,72.54
2023-02-28T03:08:18.352Z,73.20
2023-02-28T03:10:52.082Z,73.70
2023-02-28T03:14:10.976Z,74.18
2023-02-28T03:16:59.353Z,74.97
2023-02-28T03:20:13.664Z,75.33
2023-02-28T03:23:03.282Z,76.23
2023-02-28T03:25:57.126Z,76.42
2023-02-28T03:28:24.865Z,75.39
2023-02-28T03:31:04.887Z,75.80
2023-02-28T03:33:55.967Z,75.10
2023-02-28T03:36:37.379Z,74.25
2023-02-28T03:39:37.893Z,75.10
2023-02-28T03:42:19.017Z,73.81
2023-02-28T03:44:57.829Z,73.31
2023-02-28T03:47:44.634Z,73.90
2023-02-28T03:50:23.334Z,73.56
2023-02-28T03:53:20.418Z,73.80
2023-02-28T03:56:12.372Z,75.11
2023-02-28T03:59:06.334Z,76.08
2023-02-28T04:01:42.165Z,77.41
2023-02-28T04:04:12.438Z,76.93
2023-02-28T04:06:42.040Z,75.83
2023-02-28T04:09:14.668Z,75.00
2023-02-28T04:11:53.282Z,75.96
2023-02-28T04:14:21.391Z,76.31
2023-02-28T04:16:49.929Z,76.65
2023-02-28T04:19:18.437Z,77.17
2023-02-28T04:21:52.860Z,77.95
2023-02-28T04:24:28.961Z,77.17
2023-02-28T04:26:59.134Z,76.79
2023-02-28T04:29:32.732Z,77.73
2023-02-28T04:32:02.753Z,78.03
2023-02-28T04:34:34.391Z,76.64
2023-02-28T04:37:12.960Z,77.88
2023-02-28T04:39:45.849Z,76.09
2023-02-28T04:42:14.995Z,75.92
2023-02-28T04:44:43.112Z,75.66
2023-02-28T04:47:11.147Z,75.17
2023-02-28T04:49:39.299Z,75.15
2023-02-28T04:52:08.494Z,75.86
2023-02-28T04:54:36.442Z,76.17
2023-02-28T04:57:05.378Z,75.31
2023-02-28T04:59:33.846Z,76.27
2023-02-28T05:02:07.498Z,77.01
2023-02-28T05:04:36.582Z,77.02
2023-02-28T05:07:05.120Z,77.47
2023-02-28T05:09:34.355Z,77.31
2023-02-28T05:12:02.404Z,78.05
2023-02-28T05:14:30.366Z,77.78
2023-02-28T05:16:58.246Z,77.67
2023-02-28T05:19:28.887Z,77.60
2023-02-28T05:21:57.249Z,77.50
2023-02-28T05:24:25.235Z,77.57
2023-02-28T05:26:55.786Z,76.79
2023-02-28T05:29:23.936Z,77.49
2023-02-28T05:31:52.041Z,77.70
2023-02-28T05:34:20.237Z,77.76
2023-02-28T05:36:48.255Z,78.11
2023-02-28T05:39:16.210Z,78.35
2023-02-28T05:41:45.502Z,77.72
2023-02-28T05:44:13.662Z,77.50
2023-02-28T05:46:41.752Z,78.53
2023-02-28T05:49:09.792Z,77.22
2023-02-28T05:51:40.716Z,77.84
2023-02-28T05:54:09.574Z,78.19
2023-02-28T05:56:40.924Z,77.58
2023-02-28T05:59:08.840Z,77.78
2023-02-28T06:01:39.461Z,77.21
2023-02-28T06:04:22.192Z,77.19
2023-02-28T06:06:53.772Z,76.34
2023-02-28T06:09:21.696Z,76.52
2023-02-28T06:11:49.763Z,75.53
2023-02-28T06:14:21.558Z,75.26
2023-02-28T06:16:49.715Z,73.41
2023-02-28T06:19:18.136Z,74.76
2023-02-28T06:21:49.694Z,73.31
2023-02-28T06:24:17.615Z,75.91
2023-02-28T06:26:45.681Z,76.07
2023-02-28T06:29:19.269Z,72.60
2023-02-28T06:31:48.000Z,73.17
2023-02-28T06:34:16.298Z,74.95
2023-02-28T06:36:44.695Z,75.35
2023-02-28T06:39:12.887Z,74.75
2023-02-28T06:41:54.053Z,75.46
2023-02-28T06:44:27.626Z,73.60
2023-02-28T06:46:55.540Z,74.45
2023-02-28T06:49:26.270Z,74.45
2023-02-28T06:51:55.055Z,73.41
2023-02-28T06:54:23.247Z,73.98
2023-02-28T06:56:51.217Z,72.93
2023-02-28T06:59:19.237Z,69.97
2023-02-28T07:01:59.638Z,70.88
2023-02-28T07:04:27.824Z,72.88
2023-02-28T07:06:57.938Z,72.29
2023-02-28T07:09:30.717Z,74.72
2023-02-28T07:11:58.657Z,72.42
2023-02-28T07:14:26.997Z,71.33
2023-02-28T07:16:54.883Z,71.19
2023-02-28T07:19:22.768Z,70.46
2023-02-28T07:21:50.781Z,70.62
2023-02-28T07:24:18.940Z,67.86
2023-02-28T07:26:46.867Z,70.08
2023-02-28T07:29:14.747Z,67.51
2023-02-28T07:31:42.659Z,67.15
2023-02-28T07:34:10.609Z,66.92
2023-02-28T07:36:38.557Z,66.23
2023-02-28T07:39:06.452Z,64.59
2023-02-28T07:41:35.036Z,63.54
2023-02-28T07:44:04.134Z,63.76
2023-02-28T07:46:36.831Z,63.83
2023-02-28T07:49:06.631Z,63.83
2023-02-28T07:51:34.986Z,63.50
2023-02-28T07:54:03.445Z,63.68
2023-02-28T07:56:31.967Z,62.10
2023-02-28T07:59:00.102Z,62.18
2023-02-28T08:01:28.557Z,62.49
2023-02-28T08:03:57.964Z,62.12
2023-02-28T08:06:27.286Z,61.64
2023-02-28T08:08:56.972Z,60.28
2023-02-28T08:11:24.971Z,60.34
2023-02-28T08:13:53.155Z,58.68
2023-02-28T08:16:23.280Z,57.95
2023-02-28T08:18:53.170Z,58.21
2023-02-28T08:21:22.519Z,58.82
2023-02-28T08:23:52.234Z,60.95
2023-02-28T08:26:21.228Z,59.62
2023-02-28T08:28:49.291Z,58.12
2023-02-28T08:31:18.212Z,56.03
2023-02-28T08:33:46.821Z,54.97
2023-02-28T08:36:15.958Z,55.84
2023-02-28T08:38:44.927Z,54.46
2023-02-28T08:41:16.721Z,54.65
2023-02-28T08:43:44.760Z,53.91
2023-02-28T08:46:15.035Z,52.35
2023-02-28T08:48:43.066Z,54.64
2023-02-28T08:51:19.594Z,49.37
2023-02-28T08:53:47.649Z,50.87
2023-02-28T08:56:20.423Z,51.42
2023-02-28T08:58:51.165Z,48.36
2023-02-28T09:01:37.570Z,51.65
2023-02-28T09:04:07.989Z,52.41
2023-02-28T09:06:36.129Z,48.54
2023-02-28T09:09:06.991Z,45.93
2023-02-28T09:11:36.797Z,43.74
2023-02-28T09:14:04.929Z,48.17
2023-02-28T09:16:35.481Z,45.48
2023-02-28T09:19:03.560Z,43.37
2023-02-28T09:21:31.793Z,43.08
2023-02-28T09:23:59.760Z,45.40
2023-02-28T09:26:34.936Z,43.65
2023-02-28T09:29:11.087Z,43.83
2023-02-28T09:31:39.037Z,40.99
2023-02-28T09:34:07.664Z,41.03
2023-02-28T09:36:45.253Z,43.98
2023-02-28T09:39:16.379Z,41.62
2023-02-28T09:41:51.065Z,41.91
2023-02-28T09:44:40.327Z,39.96
2023-02-28T09:47:42.328Z,41.89
2023-02-28T09:50:39.819Z,43.14
2023-02-28T09:53:40.811Z,44.75
2023-02-28T09:56:42.881Z,44.05
2023-02-28T09:59:32.580Z,41.46
2023-02-28T10:02:34.117Z,42.08
2023-02-28T10:05:19.995Z,41.90
2023-02-28T10:08:29.062Z,45.81
2023-02-28T10:11:07.553Z,45.40
2023-02-28T10:14:15.307Z,43.13
2023-02-28T10:17:00.562Z,42.59
2023-02-28T10:20:14.538Z,43.85
2023-02-28T10:23:35.768Z,46.94
2023-02-28T10:26:19.665Z,42.82
2023-02-28T10:28:47.727Z,44.46
2023-02-28T10:31:21.316Z,40.36
2023-02-28T10:33:49.566Z,47.13
2023-02-28T10:36:22.168Z,46.06
2023-02-28T10:38:51.885Z,41.68
2023-02-28T10:41:37.179Z,44.47
2023-02-28T10:44:23.804Z,44.35
2023-02-28T10:46:52.829Z,45.59
2023-02-28T10:49:30.822Z,47.65
2023-02-28T10:52:02.290Z,45.98
2023-02-28T10:54:38.754Z,45.81
2023-02-28T10:57:29.404Z,45.71
2023-02-28T11:00:26.433Z,45.13
2023-02-28T11:02:54.397Z,42.68
2023-02-28T11:05:36.225Z,39.56
2023-02-28T11:08:19.199Z,40.89
2023-02-28T11:11:01.635Z,38.39
2023-02-28T11:13:38.741Z,43.54
2023-02-28T11:16:12.501Z,43.97
2023-02-28T11:18:56.161Z,42.89
2023-02-28T11:21:41.365Z,44.20
2023-02-28T11:24:34.270Z,41.55
2023-02-28T11:27:02.814Z,42.43
2023-02-28T11:29:35.794Z,45.54
2023-02-28T11:32:21.284Z,40.04
2023-02-28T11:35:10.124Z,41.07
2023-02-28T11:37:44.784Z,44.47
2023-02-28T11:40:28.201Z,45.20
2023-02-28T11:44:03.674Z,44.38
2023-02-28T11:46:54.334Z,44.15
2023-02-28T11:49:39.401Z,41.85
2023-02-28T11:52:56.507Z,41.21
2023-02-28T11:56:08.987Z,38.20
2023-02-28T11:59:14.734Z,43.63
2023-02-28T12:02:17.253Z,43.16
2023-02-28T12:05:07.863Z,44.96
2023-02-28T12:08:25.041Z,44.86
2023-02-28T12:11:10.623Z,38.56
2023-02-28T12:14:23.034Z,39.88
2023-02-28T12:17:13.140Z,44.87
2023-02-28T12:20:34.784Z,41.76
2023-02-28T12:23:47.951Z,40.79
2023-02-28T12:26:45.045Z,46.66
2023-02-28T12:29:45.439Z,45.29
2023-02-28T12:32:27.738Z,45.04
2023-02-28T12:35:23.856Z,44.36
2023-02-28T12:38:25.330Z,45.14
2023-02-28T12:41:15.066Z,43.50
2023-02-28T12:43:56.476Z,45.68
2023-02-28T12:46:49.907Z,43.72
2023-02-28T12:49:47.368Z,40.74
2023-02-28T12:52:25.925Z,39.36
2023-02-28T12:55:09.682Z,39.45
2023-02-28T12:57:58.780Z,40.52
2023-02-28T13:00:37.862Z,39.71
2023-02-28T13:03:33.124Z,40.90
2023-02-28T13:06:37.515Z,39.17
2023-02-28T13:09:16.607Z,40.36
2023-02-28T13:11:55.467Z,41.15
2023-02-28T13:14:39.192Z,39.06
2023-02-28T13:17:16.146Z,44.96
2023-02-28T13:19:55.729Z,38.74
2023-02-28T13:22:45.582Z,34.68
2023-02-28T13:25:34.995Z,40.51
2023-02-28T13:28:11.062Z,37.02
2023-02-28T13:30:58.189Z,38.25
2023-02-28T13:33:50.604Z,36.96
2023-02-28T13:36:18.463Z,41.13
2023-02-28T13:39:37.713Z,38.85
2023-02-28T13:42:50.541Z,40.59
2023-02-28T13:45:24.976Z,41.35
2023-02-28T13:48:18.917Z,42.88
2023-02-28T13:50:50.502Z,43.96
2023-02-28T13:53:18.296Z,43.34
2023-02-28T13:56:22.834Z,41.23
2023-02-28T13:59:36.415Z,41.61
2023-02-28T14:02:28.968Z,43.17
2023-02-28T14:05:26.975Z,41.22
2023-02-28T14:08:00.588Z,42.67
2023-02-28T14:10:48.027Z,40.62
2023-02-28T14:13:47.982Z,38.06
2023-02-28T14:16:23.046Z,39.26
2023-02-28T14:19:06.225Z,38.86
2023-02-28T14:21:37.299Z,37.37
2023-02-28T14:24:43.055Z,37.86
2023-02-28T14:27:45.552Z,42.01
2023-02-28T14:31:02.457Z,46.42
2023-02-28T14:34:21.245Z,43.27
2023-02-28T14:36:51.894Z,41.40
2023-02-28T14:39:35.419Z,45.59
2023-02-28T14:42:38.861Z,39.94
2023-02-28T14:45:07.896Z,39.29
2023-02-28T14:47:37.002Z,44.00
2023-02-28T14:50:06.456Z,46.59
2023-02-28T14:52:36.242Z,42.68
2023-02-28T14:55:16.452Z,46.00
2023-02-28T14:58:20.496Z,45.47
2023-02-28T15:00:51.833Z,43.00
2023-02-28T15:03:32.775Z,43.40
2023-02-28T15:06:18.883Z,45.59
2023-02-28T15:08:47.254Z,43.21
2023-02-28T15:11:23.274Z,42.81
2023-02-28T15:13:56.536Z,46.11
2023-02-28T15:16:39.815Z,41.05
2023-02-28T15:19:37.086Z,41.96
2023-02-28T15:22:17.863Z,44.13
2023-02-28T15:24:53.416Z,43.69
2023-02-28T15:27:33.294Z,42.42
2023-02-28T15:30:10.045Z,45.31
2023-02-28T15:32:40.873Z,44.11
2023-02-28T15:35:32.615Z,43.63
2023-02-28T15:38:27.558Z,42.13
2023-02-28T15:40:59.816Z,44.50
2023-02-28T15:43:34.909Z,45.66
2023-02-28T15:46:14.109Z,43.34
2023-02-28T15:49:22.120Z,42.80
2023-02-28T15:51:53.490Z,43.96
2023-02-28T15:54:34.135Z,44.11
2023-02-28T15:57:13.834Z,44.82
2023-02-28T15:59:58.522Z,44.89
2023-02-28T16:02:38.630Z,42.01
2023-02-28T16:05:12.110Z,42.16
2023-02-28T16:07:44.444Z,44.80
2023-02-28T16:10:16.859Z,46.73
2023-02-28T16:12:45.727Z,45.41
2023-02-28T16:15:29.581Z,46.28
2023-02-28T16:17:59.130Z,48.15
2023-02-28T16:20:32.269Z,48.61
2023-02-28T16:23:02.827Z,50.27
2023-02-28T16:25:39.613Z,51.14
2023-02-28T16:28:33.350Z,51.81
2023-02-28T16:31:04.807Z,50.90
2023-02-28T16:33:34.144Z,49.67
2023-02-28T16:36:02.268Z,48.30
2023-02-28T16:38:30.272Z,48.77
2023-02-28T16:41:02.106Z,47.87
2023-02-28T16:43:30.405Z,48.57
2023-02-28T16:46:01.250Z,48.74
2023-02-28T16:48:29.401Z,49.12
2023-02-28T16:50:57.350Z,49.81
2023-02-28T16:53:25.213Z,49.64
2023-02-28T16:55:53.047Z,49.51
2023-02-28T16:58:22.647Z,51.11
2023-02-28T17:00:50.824Z,51.67
2023-02-28T17:03:33.408Z,50.86
2023-02-28T17:06:02.785Z,51.64
2023-02-28T17:08:33.079Z,51.36
2023-02-28T17:11:02.515Z,50.53
2023-02-28T17:13:30.677Z,50.04
2023-02-28T17:15:58.639Z,49.62
2023-02-28T17:18:27.632Z,49.00
2023-02-28T17:20:55.497Z,48.75
2023-02-28T17:23:23.398Z,49.49
2023-02-28T17:25:58.223Z,48.46
2023-02-28T17:28:26.494Z,48.21
2023-02-28T17:30:54.411Z,49.04
2023-02-28T17:33:22.387Z,50.19
2023-02-28T17:35:50.471Z,51.05
2023-02-28T17:38:20.495Z,51.85
2023-02-28T17:40:48.525Z,52.78
2023-02-28T17:43:16.680Z,52.58
2023-02-28T17:45:47.448Z,51.16
2023-02-28T17:48:17.880Z,52.93
2023-02-28T17:50:45.843Z,53.20
2023-02-28T17:53:14.956Z,52.90
2023-02-28T17:55:42.843Z,52.15
2023-02-28T17:58:13.774Z,53.46
2023-02-28T18:00:41.910Z,53.42
2023-02-28T18:03:10.541Z,52.76
2023-02-28T18:05:38.585Z,52.46
2023-02-28T18:08:06.416Z,53.31
2023-02-28T18:10:34.597Z,54.29
2023-02-28T18:13:04.493Z,56.24
2023-02-28T18:15:32.354Z,56.97
2023-02-28T18:18:00.468Z,56.10
2023-02-28T18:20:29.622Z,54.81
2023-02-28T18:22:57.550Z,57.02
2023-02-28T18:25:25.998Z,58.69
2023-02-28T18:27:54.496Z,59.37
2023-02-28T18:30:22.904Z,60.27
2023-02-28T18:32:51.051Z,60.51
2023-02-28T18:35:34.694Z,61.53
2023-02-28T18:38:19.255Z,61.30
2023-02-28T18:41:01.002Z,62.77
2023-02-28T18:43:32.330Z,62.72
2023-02-28T18:46:12.969Z,63.85
2023-02-28T18:48:41.597Z,62.94
2023-02-28T18:51:20.771Z,62.81
2023-02-28T18:53:48.780Z,64.13
2023-02-28T18:56:23.071Z,64.03
2023-02-28T18:58:52.339Z,61.70
2023-02-28T19:01:29.975Z,62.94
2023-02-28T19:04:03.365Z,62.70
2023-02-28T19:06:33.174Z,61.14
2023-02-28T19:09:04.113Z,62.38
2023-02-28T19:11:32.620Z,62.69
2023-02-28T19:14:01.225Z,64.59
2023-02-28T19:16:29.771Z,64.29
2023-02-28T19:18:57.903Z,63.39
2023-02-28T19:21:26.205Z,62.94
2023-02-28T19:23:54.244Z,64.07
2023-02-28T19:26:25.383Z,62.48
2023-02-28T19:28:53.564Z,62.98
2023-02-28T19:31:25.745Z,64.65
2023-02-28T19:33:54.152Z,64.06
2023-02-28T19:36:22.459Z,62.52
2023-02-28T19:38:50.666Z,61.04
2023-02-28T19:41:19.549Z,61.17
2023-02-28T19:43:47.903Z,62.63
2023-02-28T19:46:16.125Z,62.92
2023-02-28T19:48:44.890Z,63.92
2023-02-28T19:53:44.897Z,62.59
2023-02-28T19:56:13.065Z,62.20
2023-02-28T19:58:41.289Z,63.14
2023-02-28T20:01:16.918Z,63.78
2023-02-28T20:03:49.924Z,64.36
2023-02-28T20:06:18.468Z,65.11
2023-02-28T20:08:47.639Z,64.16
2023-02-28T20:11:17.462Z,63.13
2023-02-28T20:13:45.848Z,65.33
2023-02-28T20:16:15.675Z,63.63
2023-02-28T20:18:44.547Z,61.95
2023-02-28T20:21:14.365Z,61.54
2023-02-28T20:23:43.357Z,60.01
2023-02-28T20:26:12.629Z,59.77
2023-02-28T20:28:41.258Z,63.20
2023-02-28T20:31:25.466Z,65.11
2023-02-28T20:33:53.588Z,62.81
2023-02-28T20:36:22.699Z,61.57
2023-02-28T20:38:53.365Z,60.36
2023-02-28T20:41:22.641Z,59.92
2023-02-28T20:43:59.064Z,59.83
2023-02-28T20:46:30.141Z,59.72
2023-02-28T20:48:58.626Z,58.30
2023-02-28T20:51:26.700Z,61.23
2023-02-28T20:53:54.605Z,64.39
2023-02-28T20:56:23.860Z,67.94
2023-02-28T20:58:58.053Z,67.41
2023-02-28T21:01:28.752Z,65.67
2023-02-28T21:04:06.014Z,65.49
2023-02-28T21:06:47.482Z,64.72
2023-02-28T21:09:16.403Z,62.45
2023-02-28T21:11:45.909Z,61.20
2023-02-28T21:14:18.290Z,64.21
2023-02-28T21:16:46.876Z,64.36
2023-02-28T21:19:16.188Z,65.61
2023-02-28T21:21:46.779Z,66.88
2023-02-28T21:24:19.265Z,68.99
2023-02-28T21:26:48.543Z,69.92
2023-02-28T21:29:16.739Z,67.96
2023-02-28T21:31:44.690Z,65.81
2023-02-28T21:34:13.893Z,63.15
2023-02-28T21:36:47.207Z,63.78
2023-02-28T21:39:29.940Z,64.67
2023-02-28T21:42:03.432Z,63.76
2023-02-28T21:44:34.411Z,66.52
2023-02-28T21:47:02.693Z,68.26
2023-02-28T21:49:31.101Z,67.62
2023-02-28T21:51:59.488Z,67.22
2023-02-28T21:54:27.596Z,68.59
2023-02-28T21:56:56.229Z,68.50
2023-02-28T21:59:24.346Z,68.82
2023-02-28T22:01:52.326Z,68.16
2023-02-28T22:04:23.180Z,66.95
2023-02-28T22:06:59.493Z,65.86
2023-02-28T22:09:27.766Z,62.85
2023-02-28T22:11:57.452Z,65.17
2023-02-28T22:14:25.530Z,66.56
2023-02-28T22:16:55.014Z,68.97
2023-02-28T22:19:24.038Z,69.47
2023-02-28T22:21:53.822Z,71.84
2023-02-28T22:24:24.317Z,72.32
2023-02-28T22:26:53.791Z,70.22
2023-02-28T22:29:22.149Z,69.77
2023-02-28T22:31:50.656Z,69.11
2023-02-28T22:34:20.008Z,68.00
2023-02-28T22:36:48.010Z,67.73
2023-02-28T22:39:16.326Z,67.67
2023-02-28T22:41:44.212Z,70.09
2023-02-28T22:44:12.288Z,71.20
2023-02-28T22:46:40.347Z,71.73
2023-02-28T22:49:08.448Z,72.63
2023-02-28T22:51:36.515Z,70.91
2023-02-28T22:54:05.074Z,69.68
2023-02-28T22:56:33.558Z,68.84
2023-02-28T22:59:03.615Z,68.05
2023-02-28T23:01:34.606Z,67.97
2023-02-28T23:04:02.966Z,68.96
2023-02-28T23:06:44.242Z,69.86
2023-02-28T23:09:23.537Z,69.42
2023-02-28T23:11:52.169Z,69.53
2023-02-28T23:14:21.629Z,70.18
2023-02-28T23:16:54.079Z,68.26
2023-02-28T23:19:29.959Z,69.70
2023-02-28T23:22:00.160Z,71.13
2023-02-28T23:24:33.163Z,71.44
2023-02-28T23:27:05.870Z,69.37
2023-02-28T23:29:35.768Z,66.05
2023-02-28T23:32:04.420Z,66.20
2023-02-28T23:34:32.450Z,64.61
2023-02-28T23:37:02.130Z,64.65
2023-02-28T23:39:31.510Z,64.20
2023-02-28T23:42:00.053Z,62.77
2023-02-28T23:44:27.984Z,65.42
2023-02-28T23:46:56.041Z,65.87
2023-02-28T23:49:24.011Z,64.91
2023-02-28T23:51:54.378Z,65.09
2023-02-28T23:54:22.735Z,66.80
2023-02-28T23:56:50.700Z,66.67
2023-02-28T23:59:19.271Z,65.87
